KBUU

Details ICAO KBUU (BUU)
Name BURLINGTON MUNI
Region United States
Timezone America/Chicago (UTC-5.0)
Plans Departing 6
Arriving 1
Stats Elevation 779 ft / 237 m (AMSL)
Location 42.690401° -88.304443°
Runways 2
Magnetic Variation 3.552° W
Sunrise 2018-05-22 10:25:50 UTC / 2018-05-22 05:25:50 Local
Sunset 2018-05-23 01:16:50 UTC / 2018-05-22 20:16:50 Local
Advertisement - Login to hide

Runways

ID Width Length Bearing (true) Bearing (mag) Surface Threshold Offset Overrun Length
01 130 ft / 40 m 2,478 ft / 755 m 12.00° 15.55° Grass 0 ft / 0 m 0 ft / 0 m
11 75 ft / 23 m 4,291 ft / 1,308 m 108.83° 112.38° Asphalt 0 ft / 0 m 0 ft / 0 m
19 130 ft / 40 m 2,478 ft / 755 m 192.00° 195.55° Grass 0 ft / 0 m 0 ft / 0 m
29 75 ft / 23 m 4,291 ft / 1,308 m 288.85° 292.40° Asphalt 0 ft / 0 m 0 ft / 0 m

Map

Weather


0- 5 10 15 20 25 30 35+ Temperature / ° C

Clouds and Precipitation
Forecast for 2018-05-23 06:00 UTC. Updated 16 minutes ago

Ground ~20,000 ft ~40,000 ft Winds

METAR

KBUU 230515Z AUTO 00000KT 3SM BR CLR 12/11 A3010 RMK AO2 T01180114

TAF

Not found

Frequencies

Unicom 123.05 MHz CTAF/UNICOM
Approach 125.35 MHz MILWAUKEE APP/DEP
Warning: Do not use this data for real-world aviation or navigation. No guarantee of current accuracy is given.